Погода Тиссина 2 недели

Республика Дагестан, Россия

15 - 28 июля
  • 15июля
    Сегодня
    +20°
    +32°
    Ясно и безоблачно
    ВремяПогодаТемператураВлажностьДавлениеВетер, м/сВероятность осадков
    00:00Ясно и безоблачно+18°C76 %682 мм0.8 м/с4 %
    03:00Ясно и безоблачно+18°C71 %682 мм1.1 м/с3 %
    06:00Практически безоблачно+21°C62 %683 мм0.6 м/с3 %
    09:00Ясно и безоблачно+26°C45 %683 мм1.0 м/с2 %
    12:00Небольшая облачность+30°C37 %683 мм1.9 м/с2 %
    15:00Ясно и безоблачно+31°C36 %683 мм2.0 м/с3 %
    18:00Ясно и безоблачно+29°C47 %683 мм1.5 м/с2 %
    21:00Ясно и безоблачно+22°C71 %683 мм0.4 м/с2 %
  • 16июля
    Вторник
    +21°
    +32°
    Небольшая облачность
    ВремяПогодаТемператураВлажностьДавлениеВетер, м/сВероятность осадков
    00:00Ясно и безоблачно+21°C78 %683 мм0.9 м/с2 %
    03:00Ясно и безоблачно+21°C78 %683 мм1.1 м/с2 %
    06:00Ясно и безоблачно+23°C70 %684 мм0.7 м/с2 %
    09:00Ясно и безоблачно+28°C51 %684 мм1.0 м/с2 %
    12:00Небольшая облачность+31°C41 %684 мм1.6 м/с8 %
    15:00Небольшая облачность+31°C41 %684 мм1.9 м/с23 %
    18:00Небольшая облачность+28°C56 %684 мм1.0 м/с22 %
    21:00Практически безоблачно+25°C63 %685 мм0.2 м/с5 %
  • 17июля
    Среда
    +21°
    +32°
    Облачно с прояснениями, небольшой дождь
    ВремяПогодаТемператураВлажностьДавлениеВетер, м/сВероятность осадков
    00:00Небольшая облачность+22°C80 %684 мм0.9 м/с4 %
    03:00Практически безоблачно+22°C78 %684 мм0.9 м/с3 %
    06:00Ясно и безоблачно+24°C70 %685 мм0.6 м/с3 %
    09:00Практически безоблачно+28°C49 %685 мм1.0 м/с3 %
    12:00Небольшая облачность+31°C41 %685 мм1.5 м/с36 %
    15:00Облачно с прояснениями, небольшой дождь+30°C54 %686 мм1.0 м/с56 %
    18:00Небольшая облачность+29°C58 %685 мм0.8 м/с43 %
    21:00Облачно с прояснениями+25°C74 %685 мм0.7 м/с22 %
  • 18июля
    Четверг
    +20°
    +30°
    Небольшая облачность и лёгкий дождик
    ВремяПогодаТемператураВлажностьДавлениеВетер, м/сВероятность осадков
    00:00Облачно с прояснениями+24°C79 %685 мм0.4 м/с27 %
    03:00Небольшая облачность+22°C85 %684 мм0.8 м/с24 %
    06:00Ясно и безоблачно+23°C75 %685 мм0.6 м/с23 %
    09:00Практически безоблачно+27°C54 %686 мм1.2 м/с26 %
    12:00Практически безоблачно+29°C47 %685 мм1.8 м/с49 %
    15:00Небольшая облачность и лёгкий дождик+29°C47 %685 мм2.0 м/с51 %
    18:00Небольшая облачность+27°C53 %685 мм1.3 м/с25 %
    21:00Ясно и безоблачно+23°C71 %685 мм0.6 м/с4 %
  • 19июля
    Пятница
    +21°
    +32°
    Облачно с прояснениями
    ВремяПогодаТемператураВлажностьДавлениеВетер, м/сВероятность осадков
    00:00Ясно и безоблачно+21°C77 %684 мм0.5 м/с4 %
    03:00Ясно и безоблачно+22°C74 %684 мм0.7 м/с2 %
    06:00Ясно и безоблачно+23°C69 %684 мм0.7 м/с3 %
    09:00Ясно и безоблачно+26°C46 %684 мм1.0 м/с3 %
    12:00Облачно с прояснениями+29°C38 %683 мм1.3 м/с20 %
    15:00Облачно с прояснениями+31°C33 %682 мм2.6 м/с26 %
    18:00Практически безоблачно+29°C41 %682 мм1.7 м/с12 %
    21:00Небольшая облачность+22°C63 %681 мм0.7 м/с6 %
Мы используем cookies
Соглашаюсь